Time;durP1;ratioP1;P1;durP2;ratioP2;P2;SDS_P1;SDS_P2;PMS_P1;PMS_P2;Temp;Humidity;BMP_temperature;BMP_pressure;BME280_temperature;BME280_humidity;BME280_pressure;Samples;Min_cycle;Max_cycle;Signal;HPM_P1;HPM_P2
2023/07/28 00:00:10;;;;;;;;;2.67;2.67;;;;;21.34;68.39;100422.38;5061640;28;45473;-73
2023/07/28 00:02:46;;;;;;;;;3.67;2.67;;;;;21.37;68.42;100430.22;5060734;28;45444;-68
2023/07/28 00:05:13;;;;;;;;;5.33;3.00;;;;;21.36;68.36;100430.31;5054960;28;45572;-68
2023/07/28 00:07:40;;;;;;;;;3.67;2.67;;;;;21.35;68.48;100432.09;5059185;28;46521;-65
2023/07/28 00:10:07;;;;;;;;;3.00;2.33;;;;;21.36;68.47;100440.97;5057803;28;45472;-64
2023/07/28 00:12:39;;;;;;;;;7.33;3.00;;;;;21.34;68.27;100433.03;5059006;28;45318;-66
2023/07/28 00:15:33;;;;;;;;;7.00;4.00;;;;;21.37;68.24;100430.22;5060414;28;45492;-66
2023/07/28 00:18:02;;;;;;;;;3.00;3.00;;;;;21.38;68.35;100425.78;5051255;28;46500;-65
2023/07/28 00:20:36;;;;;;;;;3.33;2.00;;;;;21.39;68.13;100430.16;5057187;28;45353;-67
2023/07/28 00:23:02;;;;;;;;;2.00;2.00;;;;;21.34;68.04;100416.22;5056208;28;45460;-69
2023/07/28 00:25:28;;;;;;;;;2.00;2.00;;;;;21.41;68.17;100432.81;5058456;28;45342;-65
2023/07/28 00:27:53;;;;;;;;;4.67;2.33;;;;;21.41;68.08;100424.81;5057201;28;45940;-66
2023/07/28 00:30:19;;;;;;;;;3.67;1.67;;;;;21.27;68.17;100398.78;5057431;28;45359;-66
2023/07/28 00:32:45;;;;;;;;;1.67;1.00;;;;;21.39;68.33;100420.41;5057566;28;45484;-66
2023/07/28 00:35:11;;;;;;;;;2.00;2.00;;;;;21.41;68.01;100424.81;5056972;28;45393;-65
2023/07/28 00:37:37;;;;;;;;;4.33;2.33;;;;;21.32;68.08;100415.41;5057008;28;45628;-65
2023/07/28 00:40:03;;;;;;;;;3.33;2.00;;;;;21.12;68.37;100395.06;5056594;28;45463;-67
2023/07/28 00:42:30;;;;;;;;;1.67;1.33;;;;;21.21;68.55;100407.91;5055660;28;45409;-65
2023/07/28 00:44:56;;;;;;;;;1.67;1.67;;;;;21.31;68.43;100429.69;5056654;28;45547;-65
2023/07/28 00:47:21;;;;;;;;;4.00;2.33;;;;;21.32;68.50;100423.41;5055343;28;46639;-65
2023/07/28 00:49:54;;;;;;;;;1.33;1.00;;;;;21.34;68.34;100432.19;5057531;28;45480;-64
2023/07/28 00:52:23;;;;;;;;;1.67;1.00;;;;;21.16;68.58;100396.63;5058094;28;45326;-65
2023/07/28 00:54:56;;;;;;;;;1.00;1.00;;;;;21.34;68.48;100421.53;5057196;28;45303;-65
2023/07/28 00:57:55;;;;;;;;;1.67;1.67;;;;;21.34;68.57;100417.06;5057900;28;46222;-67
2023/07/28 01:00:41;;;;;;;;;2.33;2.00;;;;;21.37;68.53;100416.91;5053516;28;45702;-64
2023/07/28 01:03:10;;;;;;;;;2.00;2.00;;;;;21.28;68.89;100416.50;5056788;28;45354;-66
2023/07/28 01:06:20;;;;;;;;;1.33;1.33;;;;;21.30;68.77;100420.81;5058063;28;45418;-65
2023/07/28 01:09:30;;;;;;;;;4.33;2.33;;;;;21.33;68.76;100422.44;5057016;28;45439;-65
2023/07/28 01:12:16;;;;;;;;;1.67;1.67;;;;;21.27;69.39;100422.75;5034213;28;45442;-65
2023/07/28 01:15:00;;;;;;;;;2.33;2.33;;;;;21.27;69.09;100415.63;5056573;28;45425;-65
2023/07/28 01:17:26;;;;;;;;;1.00;1.00;;;;;21.30;69.54;100417.28;5055491;28;45663;-64
2023/07/28 01:19:52;;;;;;;;;3.00;1.00;;;;;21.27;69.35;100415.63;5058342;28;46853;-65
2023/07/28 01:22:34;;;;;;;;;2.00;2.00;;;;;21.19;69.55;100409.81;5059104;28;45315;-66
2023/07/28 01:25:12;;;;;;;;;2.00;2.00;;;;;21.26;69.36;100426.34;5057753;28;45384;-64
2023/07/28 01:28:07;;;;;;;;;4.00;2.67;;;;;21.19;69.26;100409.81;5059516;28;45362;-65
2023/07/28 01:30:33;;;;;;;;;2.67;2.67;;;;;21.29;69.34;100429.75;5049648;28;46918;-65
2023/07/28 01:32:59;;;;;;;;;3.33;2.00;;;;;21.25;69.25;100417.50;5059326;28;45297;-65
2023/07/28 01:35:26;;;;;;;;;4.00;3.00;;;;;21.11;69.14;100390.66;5059989;28;45313;-65
2023/07/28 01:37:51;;;;;;;;;2.33;2.33;;;;;21.28;69.40;100419.16;5059620;28;45321;-65
2023/07/28 01:40:37;;;;;;;;;5.00;2.00;;;;;21.30;69.39;100425.28;5060255;28;45477;-65
2023/07/28 01:43:02;;;;;;;;;1.00;1.00;;;;;21.29;69.22;100426.22;5058384;28;45511;-65
2023/07/28 01:45:28;;;;;;;;;1.33;1.33;;;;;21.29;69.18;100421.75;5058778;28;45405;-66
2023/07/28 01:47:53;;;;;;;;;3.67;2.00;;;;;21.29;69.61;100415.56;5060433;28;45436;-65
2023/07/28 01:50:19;;;;;;;;;1.67;1.67;;;;;21.26;69.08;100405.03;5060417;28;46532;-65
2023/07/28 01:52:44;;;;;;;;;3.00;1.33;;;;;21.23;69.20;100402.53;5059862;28;45534;-65
2023/07/28 01:55:10;;;;;;;;;1.00;1.00;;;;;21.28;68.96;100398.69;5060156;28;45599;-65
2023/07/28 01:57:49;;;;;;;;;1.00;1.00;;;;;21.26;69.46;100397.94;5060870;28;45465;-65
2023/07/28 02:00:18;;;;;;;;;2.00;1.00;;;;;21.30;69.15;100403.97;5059058;28;45571;-65
2023/07/28 02:02:50;;;;;;;;;3.00;1.00;;;;;21.07;69.17;100363.31;5058812;28;45448;-65
2023/07/28 02:05:16;;;;;;;;;3.33;2.00;;;;;21.26;69.21;100389.94;5059111;28;45386;-65
2023/07/28 02:07:42;;;;;;;;;2.00;1.67;;;;;21.17;69.20;100398.38;5058534;28;45311;-65
2023/07/28 02:10:08;;;;;;;;;1.00;0.00;;;;;21.15;69.32;100395.75;5059062;28;45375;-65
2023/07/28 02:12:33;;;;;;;;;2.33;2.00;;;;;21.25;69.13;100414.84;5058008;28;45499;-65
2023/07/28 02:14:59;;;;;;;;;1.00;1.00;;;;;21.28;69.44;100412.00;5061116;28;45521;-66
2023/07/28 02:17:25;;;;;;;;;2.00;2.00;;;;;21.24;69.21;100410.47;5062967;28;46613;-65
2023/07/28 02:19:51;;;;;;;;;3.33;1.00;;;;;21.22;69.23;100406.13;5057977;28;47877;-67
2023/07/28 02:22:16;;;;;;;;;3.67;1.00;;;;;21.21;69.25;100399.94;5059224;28;45424;-65
2023/07/28 02:24:42;;;;;;;;;2.67;1.00;;;;;21.23;69.43;100399.88;5059111;28;45552;-65
2023/07/28 02:27:07;;;;;;;;;2.00;1.00;;;;;21.16;69.49;100385.97;5058853;28;45603;-65
2023/07/28 02:29:33;;;;;;;;;1.00;1.00;;;;;21.20;69.32;100394.69;5057630;28;46208;-65
2023/07/28 02:31:59;;;;;;;;;1.00;1.00;;;;;21.12;69.38;100385.28;5059547;28;45356;-65
2023/07/28 02:34:24;;;;;;;;;1.00;1.00;;;;;21.19;69.41;100396.50;5059715;28;45383;-65
2023/07/28 02:36:50;;;;;;;;;2.00;0.67;;;;;21.21;69.53;100401.72;5058503;28;45609;-65
2023/07/28 02:39:16;;;;;;;;;1.00;1.00;;;;;21.21;69.19;100401.72;5057052;28;45794;-65
2023/07/28 02:41:42;;;;;;;;;2.00;1.00;;;;;21.11;69.45;100380.00;5058328;28;45506;-65
2023/07/28 02:44:08;;;;;;;;;1.33;1.00;;;;;21.10;69.57;100376.47;5059531;28;45437;-65
2023/07/28 02:46:34;;;;;;;;;2.00;1.00;;;;;21.18;69.62;100397.41;5058458;28;45447;-65
2023/07/28 02:48:59;;;;;;;;;1.00;1.00;;;;;21.12;69.37;100387.94;5058519;28;45420;-65
2023/07/28 02:51:25;;;;;;;;;2.67;1.00;;;;;21.22;69.58;100399.00;5057757;28;45501;-65
2023/07/28 02:53:50;;;;;;;;;1.00;1.00;;;;;21.23;69.31;100397.19;5058388;28;45514;-64
2023/07/28 02:56:22;;;;;;;;;1.00;1.00;;;;;21.08;69.45;100369.50;5058560;28;45286;-65
2023/07/28 02:58:48;;;;;;;;;3.33;2.00;;;;;21.21;69.65;100394.59;5056921;28;48239;-65
2023/07/28 03:01:14;;;;;;;;;1.00;1.00;;;;;21.23;69.30;100398.06;5058029;28;45548;-64
2023/07/28 03:03:40;;;;;;;;;1.00;1.00;;;;;21.17;69.55;100390.38;5057953;28;45443;-65
2023/07/28 03:06:05;;;;;;;;;1.00;1.00;;;;;21.25;69.59;100412.16;5058399;28;45495;-66
2023/07/28 03:08:31;;;;;;;;;1.00;1.00;;;;;21.23;69.50;100407.84;5058266;28;45456;-65
2023/07/28 03:10:58;;;;;;;;;0.00;0.00;;;;;21.25;69.37;100406.84;5056861;28;45372;-65
2023/07/28 03:13:24;;;;;;;;;4.00;1.00;;;;;21.24;69.72;100405.13;5057963;28;45463;-67
2023/07/28 03:15:49;;;;;;;;;1.33;1.33;;;;;21.24;69.71;100410.47;5057609;28;45535;-67
2023/07/28 03:18:15;;;;;;;;;1.00;1.00;;;;;21.17;70.06;100412.53;5059132;28;46546;-68
2023/07/28 03:20:41;;;;;;;;;2.33;2.00;;;;;21.13;70.33;100413.63;5058779;28;45338;-65
2023/07/28 03:23:06;;;;;;;;;1.00;1.00;;;;;21.07;70.42;100400.59;5046340;28;45990;-66
2023/07/28 03:25:32;;;;;;;;;1.33;1.33;;;;;21.03;70.66;100406.13;5057928;28;45851;-66
2023/07/28 03:27:58;;;;;;;;;3.67;1.00;;;;;21.08;70.65;100415.63;5058163;28;47308;-65
2023/07/28 03:30:24;;;;;;;;;4.00;2.00;;;;;21.13;70.53;100412.75;5056598;28;46477;-66
2023/07/28 03:32:49;;;;;;;;;1.00;1.00;;;;;21.12;70.77;100411.03;5059316;28;45544;-73
2023/07/28 03:35:18;;;;;;;;;1.67;1.67;;;;;20.82;70.86;100363.59;5058918;28;45425;-65
2023/07/28 03:37:44;;;;;;;;;2.33;1.00;;;;;21.07;71.00;100410.38;5048988;28;46671;-66
2023/07/28 03:40:10;;;;;;;;;2.00;2.00;;;;;21.04;71.41;100415.84;5056022;28;45463;-66
2023/07/28 03:42:35;;;;;;;;;1.00;1.00;;;;;21.07;71.05;100405.03;5055125;28;45874;-64
2023/07/28 03:45:01;;;;;;;;;0.00;0.00;;;;;21.10;71.16;100403.13;5056549;28;45517;-66
2023/07/28 03:47:26;;;;;;;;;1.67;1.00;;;;;21.11;71.02;100402.16;5054433;28;46027;-65
2023/07/28 03:49:52;;;;;;;;;5.00;2.00;;;;;21.04;71.17;100384.75;5055664;28;45438;-65
2023/07/28 03:52:24;;;;;;;;;1.00;1.00;;;;;21.04;71.13;100383.88;5054497;28;45481;-65
2023/07/28 03:54:49;;;;;;;;;3.67;1.00;;;;;21.05;71.17;100386.50;5048566;28;45433;-66
2023/07/28 03:57:24;;;;;;;;;4.00;2.00;;;;;21.10;72.17;100397.78;5056236;28;45469;-66
2023/07/28 03:59:50;;;;;;;;;2.00;1.00;;;;;20.92;72.48;100369.34;5055107;28;45819;-68
2023/07/28 04:02:16;;;;;;;;;0.00;0.00;;;;;20.96;73.67;100376.28;5054750;28;45506;-64
2023/07/28 04:04:41;;;;;;;;;2.00;2.00;;;;;20.88;74.01;100378.41;5052791;28;45570;-64
2023/07/28 04:07:07;;;;;;;;;1.00;1.00;;;;;20.82;74.88;100390.22;5054295;28;45381;-65
2023/07/28 04:09:33;;;;;;;;;2.33;2.00;;;;;20.78;74.72;100377.97;5054317;28;45583;-66
2023/07/28 04:11:59;;;;;;;;;1.67;1.00;;;;;20.80;75.83;100392.09;5055324;28;45543;-67
2023/07/28 04:14:25;;;;;;;;;1.33;1.00;;;;;20.75;75.62;100384.31;5054558;28;45511;-68
2023/07/28 04:16:50;;;;;;;;;1.33;1.33;;;;;20.68;76.07;100384.66;5054641;28;46229;-73
2023/07/28 04:19:16;;;;;;;;;1.00;1.00;;;;;20.69;76.32;100381.06;5055219;28;45468;-66
2023/07/28 04:21:42;;;;;;;;;2.00;2.00;;;;;20.67;75.96;100373.16;5050018;28;45693;-66
2023/07/28 04:24:09;;;;;;;;;1.00;1.00;;;;;20.76;75.87;100385.16;5060517;27;45489;-67
2023/07/28 04:26:36;;;;;;;;;1.67;1.00;;;;;20.76;75.92;100382.50;5055418;28;45533;-67
2023/07/28 04:29:01;;;;;;;;;2.33;2.00;;;;;20.79;76.05;100381.53;5056750;28;45569;-76
2023/07/28 04:31:27;;;;;;;;;3.67;0.33;;;;;20.60;75.96;100355.75;5056512;28;45754;-73
2023/07/28 04:33:53;;;;;;;;;1.33;1.33;;;;;20.60;76.40;100358.41;5057145;28;45445;-71
2023/07/28 04:36:19;;;;;;;;;1.33;1.33;;;;;20.71;76.22;100381.84;5056929;28;45456;-65
2023/07/28 04:38:46;;;;;;;;;1.00;1.00;;;;;20.77;76.46;100389.56;5057122;28;45349;-64
2023/07/28 04:41:13;;;;;;;;;2.67;1.67;;;;;20.79;76.57;100394.84;5056983;28;45511;-65
2023/07/28 04:43:38;;;;;;;;;1.00;1.00;;;;;20.78;76.69;100401.94;5056729;28;45521;-64
2023/07/28 04:46:04;;;;;;;;;2.67;1.67;;;;;20.73;77.22;100407.47;5057520;28;46022;-65
2023/07/28 04:48:30;;;;;;;;;3.00;2.00;;;;;20.71;77.52;100398.69;5056637;28;45172;-65
2023/07/28 04:50:55;;;;;;;;;1.00;1.00;;;;;20.70;77.10;100399.63;5071951;28;45433;-65
2023/07/28 04:53:21;;;;;;;;;1.00;1.00;;;;;20.54;77.36;100370.16;5060371;28;45329;-65
2023/07/28 04:55:47;;;;;;;;;0.00;0.00;;;;;20.65;77.82;100395.47;5062485;28;45301;-65
2023/07/28 04:58:12;;;;;;;;;2.00;1.00;;;;;20.62;77.84;100400.88;5062204;28;45457;-65
2023/07/28 05:00:38;;;;;;;;;1.00;1.00;;;;;20.67;77.38;100404.25;5062006;28;45393;-64
2023/07/28 05:03:03;;;;;;;;;1.00;0.67;;;;;20.66;77.46;100402.50;5060145;28;45597;-64
2023/07/28 05:05:29;;;;;;;;;0.67;0.67;;;;;20.71;77.63;100403.13;5060278;28;46425;-68
2023/07/28 05:07:55;;;;;;;;;2.67;1.00;;;;;20.62;77.09;100383.16;5060121;28;45468;-64
2023/07/28 05:10:21;;;;;;;;;1.33;0.00;;;;;20.69;77.37;100397.91;5059839;28;45493;-65
2023/07/28 05:12:46;;;;;;;;;0.33;0.33;;;;;20.71;76.93;100396.00;5061207;28;45524;-64
2023/07/28 05:15:14;;;;;;;;;1.00;1.00;;;;;20.79;76.88;100408.13;5061113;28;45693;-64
2023/07/28 05:17:44;;;;;;;;;0.33;0.33;;;;;20.66;76.85;100382.06;5061332;28;45349;-64
2023/07/28 05:20:11;;;;;;;;;0.33;0.33;;;;;20.79;76.91;100408.13;5058054;28;45688;-63
2023/07/28 05:22:36;;;;;;;;;1.00;1.00;;;;;20.77;76.97;100400.22;5060399;28;45318;-65
2023/07/28 05:25:02;;;;;;;;;1.67;1.00;;;;;20.79;76.15;100413.47;5059270;28;45586;-68
2023/07/28 05:27:27;;;;;;;;;1.00;1.00;;;;;20.83;77.11;100407.03;5059706;28;45463;-63
2023/07/28 05:29:53;;;;;;;;;0.33;0.33;;;;;20.85;76.49;100405.19;5059360;28;45319;-64
2023/07/28 05:32:18;;;;;;;;;2.00;0.67;;;;;20.93;76.49;100411.03;5059935;28;45519;-65
2023/07/28 05:34:44;;;;;;;;;1.00;1.00;;;;;20.91;76.13;100405.78;5059151;28;45454;-64
2023/07/28 05:37:10;;;;;;;;;1.33;0.67;;;;;20.94;76.08;100402.09;5056464;28;45509;-65
2023/07/28 05:39:40;;;;;;;;;1.00;1.00;;;;;20.96;76.61;100416.22;5062138;28;45627;-65
2023/07/28 05:42:06;;;;;;;;;2.00;1.67;;;;;20.91;76.50;100402.25;5078916;28;45665;-66
2023/07/28 05:44:31;;;;;;;;;1.00;1.00;;;;;20.97;75.69;100401.94;5077291;28;45726;-64
2023/07/28 05:46:57;;;;;;;;;1.67;0.67;;;;;20.98;76.11;100386.88;5065906;28;45453;-66
2023/07/28 05:49:49;;;;;;;;;0.00;0.00;;;;;21.14;75.46;100401.16;5059160;28;45385;-65
2023/07/28 05:52:18;;;;;;;;;2.00;0.67;;;;;21.15;75.63;100409.09;5058240;28;45433;-66
2023/07/28 05:54:48;;;;;;;;;0.00;0.00;;;;;21.10;75.57;100397.78;5060192;28;46648;-65
2023/07/28 05:57:13;;;;;;;;;1.67;1.00;;;;;21.03;75.53;100388.38;5059997;28;45303;-65
2023/07/28 05:59:39;;;;;;;;;1.00;1.00;;;;;21.20;75.25;100408.88;5061727;28;45571;-65
2023/07/28 06:02:05;;;;;;;;;1.00;1.00;;;;;21.22;75.53;100419.47;5058810;28;45400;-65
2023/07/28 06:04:31;;;;;;;;;3.00;1.00;;;;;21.11;76.13;100419.94;5048499;28;45434;-66
2023/07/28 06:06:56;;;;;;;;;0.00;0.00;;;;;21.10;75.79;100416.44;5076168;28;45322;-65
2023/07/28 06:09:22;;;;;;;;;0.00;0.00;;;;;21.14;75.45;100412.69;5065718;28;45430;-66
2023/07/28 06:11:48;;;;;;;;;1.00;1.00;;;;;21.21;75.32;100415.06;5057008;28;45417;-64
2023/07/28 06:14:13;;;;;;;;;1.50;0.75;;;;;21.19;75.46;100404.50;5075251;28;45473;-65
2023/07/28 06:16:39;;;;;;;;;2.00;0.67;;;;;21.15;75.21;100398.44;5054409;28;45527;-65
2023/07/28 06:19:05;;;;;;;;;2.00;1.00;;;;;21.30;74.96;100415.47;5054726;28;45543;-65
2023/07/28 06:21:31;;;;;;;;;0.00;0.00;;;;;21.31;74.89;100424.34;5052643;28;45449;-65
2023/07/28 06:24:03;;;;;;;;;0.67;0.67;;;;;21.32;75.02;100418.94;5050992;28;45989;-66
2023/07/28 06:26:28;;;;;;;;;0.33;0.33;;;;;21.20;75.40;100419.53;5054267;28;45360;-68
2023/07/28 06:28:54;;;;;;;;;0.25;0.25;;;;;21.16;74.99;100418.78;5059201;28;45279;-64
2023/07/28 06:31:19;;;;;;;;;2.33;0.33;;;;;21.28;74.85;100425.34;5058282;28;45404;-65
2023/07/28 06:33:49;;;;;;;;;1.33;0.67;;;;;21.33;74.58;100430.44;5060743;28;45918;-64
2023/07/28 06:36:17;;;;;;;;;2.00;1.00;;;;;21.30;74.77;100427.94;5058594;28;45831;-67
2023/07/28 06:38:45;;;;;;;;;1.00;1.00;;;;;21.42;74.56;100427.38;5061478;28;45271;-67
2023/07/28 06:41:11;;;;;;;;;0.00;0.00;;;;;21.42;74.85;100432.72;5057140;28;45511;-77
2023/07/28 06:43:41;;;;;;;;;1.00;1.00;;;;;21.40;74.19;100426.59;5057334;28;45211;-65
2023/07/28 06:46:07;;;;;;;;;2.33;1.00;;;;;21.41;75.33;100422.16;5061329;28;45495;-74
2023/07/28 06:48:32;;;;;;;;;1.00;1.00;;;;;21.47;74.29;100440.47;5058820;28;45287;-72
2023/07/28 06:50:58;;;;;;;;;4.00;2.00;;;;;21.52;74.05;100444.66;5059409;28;45450;-75
2023/07/28 06:53:23;;;;;;;;;2.00;2.00;;;;;21.51;74.06;100445.59;5058560;28;45534;-68
2023/07/28 06:55:50;;;;;;;;;1.00;1.00;;;;;21.52;74.55;100447.34;5058401;28;45476;-65
2023/07/28 06:58:18;;;;;;;;;0.67;0.67;;;;;21.49;74.21;100434.13;5058870;28;45141;-65
2023/07/28 07:00:48;;;;;;;;;4.00;1.00;;;;;21.44;74.35;100433.50;5049646;28;45872;-78
2023/07/28 07:03:17;;;;;;;;;1.00;1.00;;;;;21.55;74.33;100454.31;5070347;27;45740;-66
2023/07/28 07:05:43;;;;;;;;;0.67;0.67;;;;;21.41;74.02;100427.47;5048468;28;45367;-73
2023/07/28 07:08:09;;;;;;;;;2.00;2.00;;;;;21.50;74.65;100449.22;5059719;28;45369;-68
2023/07/28 07:10:35;;;;;;;;;1.00;1.00;;;;;21.45;74.87;100451.22;5064846;28;45711;-67
2023/07/28 07:13:00;;;;;;;;;1.00;1.00;;;;;21.41;75.44;100454.97;5052499;28;45432;-73
2023/07/28 07:15:26;;;;;;;;;2.67;1.33;;;;;21.42;75.46;100450.50;5055849;28;45527;-75
2023/07/28 07:17:52;;;;;;;;;2.00;2.00;;;;;21.34;76.19;100445.50;5051380;28;45391;-69
2023/07/28 07:20:39;;;;;;;;;1.67;1.67;;;;;21.27;75.95;100446.72;5055746;28;45511;-72
2023/07/28 07:23:05;;;;;;;;;2.00;2.00;;;;;21.17;76.11;100433.84;5055164;28;45381;-72
2023/07/28 07:25:32;;;;;;;;;1.33;1.33;;;;;21.30;75.80;100454.56;5053363;28;45376;-77
2023/07/28 07:28:17;;;;;;;;;1.67;1.67;;;;;21.24;76.72;100471.72;5059920;28;45505;-64
2023/07/28 07:30:42;;;;;;;;;1.00;1.00;;;;;21.14;77.72;100478.38;5059634;28;45477;-63
2023/07/28 07:33:08;;;;;;;;;1.33;1.33;;;;;21.05;77.80;100465.53;5045024;28;45498;-65
2023/07/28 07:35:37;;;;;;;;;2.00;2.00;;;;;21.07;77.89;100472.50;5051848;28;45803;-65
2023/07/28 07:38:04;;;;;;;;;2.00;1.00;;;;;21.03;77.77;100476.22;5057771;28;45533;-65
2023/07/28 07:40:38;;;;;;;;;2.00;1.00;;;;;21.05;77.22;100478.84;5051616;28;45516;-64
2023/07/28 07:43:04;;;;;;;;;1.00;1.00;;;;;21.13;77.95;100484.66;5038039;28;46845;-65
2023/07/28 07:45:31;;;;;;;;;2.67;1.00;;;;;21.18;77.37;100479.97;5056801;28;45480;-64
2023/07/28 07:47:56;;;;;;;;;1.00;1.00;;;;;21.18;77.67;100485.31;5057096;28;45342;-65
2023/07/28 07:50:22;;;;;;;;;0.00;0.00;;;;;21.22;77.57;100483.38;5049553;28;45481;-65
2023/07/28 07:52:48;;;;;;;;;1.00;1.00;;;;;21.20;78.23;100477.25;5056704;28;45565;-65
2023/07/28 07:55:14;;;;;;;;;2.00;0.00;;;;;21.22;78.09;100488.72;5057570;28;45492;-70
2023/07/28 07:57:40;;;;;;;;;6.33;4.00;;;;;21.26;78.08;100482.28;5056518;28;46319;-65
2023/07/28 08:00:07;;;;;;;;;3.00;1.67;;;;;21.28;78.34;100494.59;5057261;28;45490;-65
2023/07/28 08:02:32;;;;;;;;;2.00;1.00;;;;;21.27;78.13;100487.53;5056776;28;45954;-66
2023/07/28 08:05:00;;;;;;;;;1.00;1.00;;;;;21.32;78.24;100482.88;5056813;28;45379;-68
2023/07/28 08:07:27;;;;;;;;;0.00;0.00;;;;;21.36;77.73;100487.13;5060096;28;45377;-67
2023/07/28 08:09:52;;;;;;;;;2.67;1.00;;;;;21.32;77.53;100468.69;5065669;28;45476;-67
2023/07/28 08:12:18;;;;;;;;;2.00;2.00;;;;;21.40;77.86;100474.53;5065320;28;45649;-66
2023/07/28 08:14:45;;;;;;;;;0.50;0.50;;;;;21.34;78.67;100478.34;5059429;27;45620;-66
2023/07/28 08:17:12;;;;;;;;;0.00;0.00;;;;;21.35;78.95;100482.72;5063981;28;45504;-71
2023/07/28 08:19:37;;;;;;;;;2.00;1.00;;;;;21.42;78.16;100493.13;5072754;27;45579;-64
2023/07/28 08:22:04;;;;;;;;;0.67;0.67;;;;;21.44;78.42;100489.44;5065703;28;46798;-66
2023/07/28 08:24:31;;;;;;;;;1.00;1.00;;;;;21.52;77.81;100497.06;5062600;28;45437;-65
2023/07/28 08:26:56;;;;;;;;;0.50;0.50;;;;;21.52;78.03;100499.75;5065827;28;45506;-67
2023/07/28 08:29:22;;;;;;;;;1.67;1.00;;;;;21.56;77.60;100499.53;5067532;28;45421;-67
2023/07/28 08:31:48;;;;;;;;;2.00;2.00;;;;;21.62;77.83;100503.72;5059312;28;45480;-66
2023/07/28 08:34:13;;;;;;;;;4.00;1.67;;;;;21.70;77.25;100509.53;5045544;28;45764;-67
2023/07/28 08:36:39;;;;;;;;;4.00;2.33;;;;;21.74;77.01;100507.59;5067706;28;45401;-66
2023/07/28 08:39:06;;;;;;;;;2.00;2.00;;;;;21.63;77.42;100484.13;5074065;27;45494;-65
2023/07/28 08:41:31;;;;;;;;;2.67;1.00;;;;;21.65;77.17;100494.72;5074999;28;45476;-68
2023/07/28 08:43:57;;;;;;;;;0.00;0.00;;;;;21.73;77.13;100503.19;5063443;28;45520;-70
2023/07/28 08:46:23;;;;;;;;;1.00;1.00;;;;;21.64;77.25;100514.28;5053871;28;46642;-64
2023/07/28 08:48:49;;;;;;;;;1.00;1.00;;;;;21.59;77.68;100515.38;5057400;28;45335;-67
2023/07/28 08:51:14;;;;;;;;;0.50;0.50;;;;;21.53;77.99;100513.00;5054726;28;46118;-68
2023/07/28 08:53:40;;;;;;;;;1.67;1.67;;;;;21.47;78.09;100504.44;5052915;28;45975;-67
2023/07/28 08:56:07;;;;;;;;;2.00;1.00;;;;;21.50;78.50;100502.50;5058727;28;45299;-66
2023/07/28 08:58:33;;;;;;;;;0.00;0.00;;;;;21.58;78.26;100515.44;5058807;28;45429;-65
2023/07/28 09:01:04;;;;;;;;;1.00;1.00;;;;;21.34;78.37;100481.00;5061670;28;46407;-65
2023/07/28 09:03:31;;;;;;;;;2.33;1.00;;;;;21.21;78.40;100461.19;5049986;28;45339;-66
2023/07/28 09:06:01;;;;;;;;;1.00;1.00;;;;;21.58;78.61;100515.44;5054599;28;45543;-65
2023/07/28 09:08:27;;;;;;;;;1.00;1.00;;;;;21.57;78.52;100514.59;5055408;28;45528;-64
2023/07/28 09:10:54;;;;;;;;;0.00;0.00;;;;;21.53;78.39;100505.00;5056218;28;45570;-64
2023/07/28 09:13:20;;;;;;;;;0.00;0.00;;;;;21.63;78.50;100520.56;5055636;28;45406;-65
2023/07/28 09:15:46;;;;;;;;;1.00;0.33;;;;;21.59;78.44;100506.50;5057808;28;45464;-69
2023/07/28 09:18:16;;;;;;;;;1.67;1.00;;;;;21.60;78.79;100524.25;5057882;28;45375;-66
2023/07/28 09:20:42;;;;;;;;;1.00;1.00;;;;;21.59;78.74;100519.84;5055307;28;46530;-65
2023/07/28 09:23:08;;;;;;;;;1.00;1.00;;;;;21.61;79.03;100517.97;5066320;28;45489;-66
2023/07/28 09:25:36;;;;;;;;;0.00;0.00;;;;;21.69;78.98;100521.16;5061580;28;45566;-68
2023/07/28 09:28:02;;;;;;;;;1.00;1.00;;;;;21.61;79.24;100496.63;5055685;28;45888;-65
2023/07/28 09:30:46;;;;;;;;;1.00;1.00;;;;;21.78;79.58;100520.72;5062776;28;45658;-66
2023/07/28 09:33:12;;;;;;;;;1.67;1.67;;;;;21.78;78.96;100509.16;5068562;28;45466;-70
2023/07/28 09:35:48;;;;;;;;;0.50;0.50;;;;;21.85;79.00;100510.59;5062036;28;45422;-66
2023/07/28 09:38:18;;;;;;;;;1.00;1.00;;;;;21.91;78.43;100509.44;5056831;28;45587;-64
2023/07/28 09:40:44;;;;;;;;;1.00;1.00;;;;;21.80;78.18;100488.63;5060599;28;45543;-65
2023/07/28 09:43:10;;;;;;;;;2.00;0.00;;;;;22.05;77.71;100520.28;5059496;28;45434;-64
2023/07/28 09:45:36;;;;;;;;;1.00;1.00;;;;;22.09;77.78;100513.88;5059257;28;45286;-64
2023/07/28 09:48:04;;;;;;;;;1.00;1.00;;;;;22.16;77.74;100511.75;5058649;28;45617;-65
2023/07/28 09:50:32;;;;;;;;;0.25;0.25;;;;;22.15;77.70;100502.88;5059262;28;46211;-64
2023/07/28 09:53:02;;;;;;;;;2.00;0.00;;;;;22.13;77.57;100507.44;5058180;28;45493;-67
2023/07/28 09:55:28;;;;;;;;;1.25;1.25;;;;;22.14;77.68;100521.63;5058853;28;45397;-65
2023/07/28 09:57:55;;;;;;;;;1.25;1.25;;;;;22.16;77.80;100511.75;5058723;28;45796;-64
2023/07/28 10:00:22;;;;;;;;;0.50;0.00;;;;;22.01;77.65;100482.25;5056125;28;46323;-64
2023/07/28 10:02:49;;;;;;;;;1.00;1.00;;;;;21.98;77.91;100478.88;5058621;28;45507;-65
2023/07/28 10:05:16;;;;;;;;;1.00;1.00;;;;;21.99;78.51;100505.44;5059414;28;45642;-65
2023/07/28 10:07:44;;;;;;;;;4.00;2.67;;;;;21.91;79.26;100507.63;5059245;28;45405;-64
2023/07/28 10:10:12;;;;;;;;;3.50;2.00;;;;;21.89;79.54;100508.66;5059019;28;46043;-66
2023/07/28 10:12:50;;;;;;;;;2.75;1.00;;;;;21.84;79.48;100494.69;5058797;28;45468;-66
2023/07/28 10:15:18;;;;;;;;;1.25;1.00;;;;;22.01;79.95;100513.38;5057430;28;45459;-66
2023/07/28 10:17:50;;;;;;;;;1.75;0.50;;;;;22.16;79.28;100509.09;5042996;28;45521;-66
2023/07/28 10:20:38;;;;;;;;;1.50;1.50;;;;;22.43;78.25;100506.88;5059143;28;46316;-68
2023/07/28 10:23:12;;;;;;;;;2.75;1.00;;;;;22.65;77.16;100506.63;5057551;28;45347;-64
2023/07/28 10:25:40;;;;;;;;;1.25;1.25;;;;;22.80;76.65;100494.28;5060296;28;45543;-72
2023/07/28 10:28:08;;;;;;;;;2.00;1.75;;;;;22.94;76.54;100497.06;5060144;28;45561;-66
2023/07/28 10:30:38;;;;;;;;;3.50;2.50;;;;;23.11;75.90;100501.53;5059735;28;45438;-72
2023/07/28 10:33:04;;;;;;;;;3.00;2.00;;;;;22.86;75.27;100449.44;5058780;28;45385;-73
2023/07/28 10:35:31;;;;;;;;;1.00;1.00;;;;;23.00;75.60;100499.47;5059241;28;45337;-68
2023/07/28 10:37:58;;;;;;;;;2.00;2.00;;;;;22.76;76.63;100477.56;5059395;28;45536;-68
2023/07/28 10:40:27;;;;;;;;;2.25;1.75;;;;;22.78;76.98;100482.81;5058182;28;45551;-71
2023/07/28 10:42:54;;;;;;;;;2.00;2.00;;;;;22.85;77.24;100489.56;5059592;28;45503;-73
2023/07/28 10:45:22;;;;;;;;;1.00;1.00;;;;;22.95;77.69;100485.47;5057926;28;45485;-75
2023/07/28 10:47:48;;;;;;;;;1.00;1.00;;;;;23.04;76.79;100478.78;5059536;28;45365;-70
2023/07/28 10:50:15;;;;;;;;;2.50;2.00;;;;;23.10;76.14;100478.47;5058790;28;45479;-74
2023/07/28 10:52:42;;;;;;;;;2.00;2.00;;;;;23.16;75.67;100478.16;5058049;28;45345;-74
2023/07/28 10:55:14;;;;;;;;;3.00;3.00;;;;;23.10;75.56;100465.09;5059321;28;45437;-73
2023/07/28 10:57:44;;;;;;;;;2.00;2.00;;;;;23.12;76.08;100475.72;5059540;28;45477;-72
2023/07/28 11:00:14;;;;;;;;;1.50;1.50;;;;;22.99;77.41;100473.72;5056645;28;45725;-71
2023/07/28 11:02:48;;;;;;;;;3.00;3.00;;;;;23.08;77.20;100475.88;5058170;28;45350;-65
2023/07/28 11:05:21;;;;;;;;;3.00;3.00;;;;;23.09;76.01;100476.75;5058155;28;45353;-65
2023/07/28 11:07:57;;;;;;;;;4.00;3.00;;;;;22.94;76.53;100469.50;5058221;28;45544;-65
2023/07/28 11:10:27;;;;;;;;;3.00;1.25;;;;;22.81;77.51;100480.00;5056487;28;47870;-67
2023/07/28 11:12:53;;;;;;;;;2.00;2.00;;;;;22.73;78.67;100475.06;5058296;28;45393;-70
2023/07/28 11:15:19;;;;;;;;;2.00;1.00;;;;;22.66;79.33;100471.00;5059398;28;45322;-65
2023/07/28 11:17:51;;;;;;;;;4.00;4.00;;;;;22.69;79.46;100478.84;5044681;28;45457;-65
2023/07/28 11:20:24;;;;;;;;;3.00;3.00;;;;;22.90;79.19;100481.28;5056117;28;46319;-66
2023/07/28 11:22:57;;;;;;;;;2.25;2.00;;;;;23.35;78.13;100479.78;5056614;28;45401;-66
2023/07/28 11:25:24;;;;;;;;;2.00;2.00;;;;;23.74;75.82;100473.19;5057924;28;45497;-68
2023/07/28 11:27:51;;;;;;;;;2.00;2.00;;;;;23.83;75.54;100467.31;5059579;28;45350;-66